Time,TemperatureF,DewpointF,PressureIn,WindDirection,WindDirectionDegrees,WindSpeedMPH,WindSpeedGustMPH,Humidity,HourlyPrecipIn,Conditions,Clouds,dailyrainin,SoftwareType,DateUTC
2013-05-13 00:06:00,54.5,48.8,29.93,North,0,0.0,-999.0,81,0.00,,,0.00,open2300 v1.10,2013-05-13 07:06:00,
2013-05-13 00:21:00,54.3,48.6,29.94,North,0,0.0,-999.0,81,0.00,,,0.00,open2300 v1.10,2013-05-13 07:21:00,
2013-05-13 00:36:00,54.3,48.6,29.93,North,0,0.0,-999.0,81,0.00,,,0.00,open2300 v1.10,2013-05-13 07:36:00,
2013-05-13 00:51:00,54.1,48.5,29.93,North,0,0.0,-999.0,81,0.00,,,0.00,open2300 v1.10,2013-05-13 07:51:00,
2013-05-13 01:07:00,54.3,48.9,29.94,North,0,0.0,-999.0,82,0.00,,,0.00,open2300 v1.10,2013-05-13 08:07:00,
2013-05-13 01:21:00,54.3,48.9,29.93,North,0,0.0,-999.0,82,0.00,,,0.00,open2300 v1.10,2013-05-13 08:21:00,
2013-05-13 01:36:00,54.3,48.9,29.94,North,0,0.0,-999.0,82,0.00,,,0.00,open2300 v1.10,2013-05-13 08:36:00,
2013-05-13 01:51:00,54.3,48.9,29.93,North,0,0.0,-999.0,82,0.00,,,0.00,open2300 v1.10,2013-05-13 08:51:00,
2013-05-13 02:07:00,54.1,48.8,29.93,North,0,0.0,-999.0,82,0.00,,,0.00,open2300 v1.10,2013-05-13 09:07:00,
2013-05-13 02:21:00,54.0,48.6,29.93,North,0,0.0,-999.0,82,0.00,,,0.00,open2300 v1.10,2013-05-13 09:21:00,
2013-05-13 02:36:00,54.0,48.6,29.93,North,0,0.0,-999.0,82,0.00,,,0.00,open2300 v1.10,2013-05-13 09:36:00,
2013-05-13 02:51:00,54.3,48.9,29.93,North,0,0.0,-999.0,82,0.00,,,0.00,open2300 v1.10,2013-05-13 09:51:00,
2013-05-13 03:07:00,54.3,48.9,29.92,North,0,0.0,-999.0,82,0.00,,,0.00,open2300 v1.10,2013-05-13 10:07:00,
2013-05-13 03:21:00,54.5,48.8,29.93,North,0,0.0,-999.0,81,0.00,,,0.00,open2300 v1.10,2013-05-13 10:21:00,
2013-05-13 03:36:00,54.7,48.9,29.92,North,0,0.0,-999.0,81,0.00,,,0.00,open2300 v1.10,2013-05-13 10:36:00,
2013-05-13 03:51:00,55.0,49.3,29.92,North,0,0.0,-999.0,81,0.00,,,0.00,open2300 v1.10,2013-05-13 10:51:00,
2013-05-13 04:07:00,54.9,49.1,29.92,North,0,0.0,-999.0,81,0.00,,,0.00,open2300 v1.10,2013-05-13 11:07:00,
2013-05-13 04:21:00,54.5,48.8,29.92,North,0,0.0,-999.0,81,0.00,,,0.00,open2300 v1.10,2013-05-13 11:21:00,
2013-05-13 04:36:00,54.7,48.9,29.93,North,0,0.0,-999.0,81,0.00,,,0.00,open2300 v1.10,2013-05-13 11:36:00,
2013-05-13 04:51:00,54.7,48.9,29.92,North,0,0.0,-999.0,81,0.00,,,0.00,open2300 v1.10,2013-05-13 11:51:00,
2013-05-13 05:07:00,54.9,49.1,29.93,North,0,0.0,-999.0,81,0.00,,,0.00,open2300 v1.10,2013-05-13 12:07:00,
2013-05-13 05:21:00,54.5,48.8,29.94,North,0,0.0,-999.0,81,0.00,,,0.00,open2300 v1.10,2013-05-13 12:21:00,
2013-05-13 05:36:00,54.7,48.9,29.93,North,0,0.0,-999.0,81,0.00,,,0.00,open2300 v1.10,2013-05-13 12:36:00,
2013-05-13 05:51:00,55.0,49.3,29.94,North,0,0.0,-999.0,81,0.00,,,0.00,open2300 v1.10,2013-05-13 12:51:00,
2013-05-13 06:07:00,55.2,49.4,29.94,North,0,0.0,-999.0,81,0.00,,,0.00,open2300 v1.10,2013-05-13 13:07:00,
2013-05-13 06:21:00,54.9,49.4,29.94,North,0,0.0,-999.0,82,0.00,,,0.00,open2300 v1.10,2013-05-13 13:21:00,
2013-05-13 06:36:00,55.0,49.6,29.95,North,0,0.0,-999.0,82,0.00,,,0.00,open2300 v1.10,2013-05-13 13:36:00,
2013-05-13 06:51:00,55.0,49.6,29.95,North,0,0.0,-999.0,82,0.00,,,0.00,open2300 v1.10,2013-05-13 13:51:00,
2013-05-13 07:07:00,54.9,49.8,29.94,North,0,0.0,-999.0,83,0.00,,,0.00,open2300 v1.10,2013-05-13 14:07:00,
2013-05-13 07:21:00,54.7,49.6,29.95,North,0,0.0,-999.0,83,0.00,,,0.00,open2300 v1.10,2013-05-13 14:21:00,
2013-05-13 07:36:00,55.0,49.9,29.96,North,0,0.0,-999.0,83,0.00,,,0.00,open2300 v1.10,2013-05-13 14:36:00,
2013-05-13 07:51:00,55.0,49.9,29.96,North,0,0.0,-999.0,83,0.00,,,0.00,open2300 v1.10,2013-05-13 14:51:00,
2013-05-13 08:06:00,55.0,49.6,29.96,North,0,0.0,-999.0,82,0.00,,,0.00,open2300 v1.10,2013-05-13 15:06:00,
2013-05-13 08:21:00,55.2,49.8,29.97,North,0,0.0,-999.0,82,0.00,,,0.00,open2300 v1.10,2013-05-13 15:21:00,
2013-05-13 08:36:00,55.6,50.1,29.97,North,0,0.0,-999.0,82,0.00,,,0.00,open2300 v1.10,2013-05-13 15:36:00,
2013-05-13 08:51:00,55.9,50.5,29.97,North,0,0.0,-999.0,82,0.00,,,0.00,open2300 v1.10,2013-05-13 15:51:00,
2013-05-13 09:06:00,55.9,50.5,29.98,North,0,0.0,-999.0,82,0.00,,,0.00,open2300 v1.10,2013-05-13 16:06:00,
2013-05-13 09:21:00,56.3,50.8,29.98,North,0,0.0,-999.0,82,0.00,,,0.00,open2300 v1.10,2013-05-13 16:21:00,
2013-05-13 09:36:00,56.8,51.0,29.98,North,0,0.0,-999.0,81,0.00,,,0.00,open2300 v1.10,2013-05-13 16:36:00,
2013-05-13 09:51:00,57.4,51.6,29.98,North,0,0.0,-999.0,81,0.00,,,0.00,open2300 v1.10,2013-05-13 16:51:00,
2013-05-13 10:06:00,57.7,51.6,29.98,North,0,0.0,-999.0,80,0.00,,,0.00,open2300 v1.10,2013-05-13 17:06:00,
2013-05-13 10:21:00,58.3,51.8,29.98,North,0,0.0,-999.0,79,0.00,,,0.00,open2300 v1.10,2013-05-13 17:21:00,
2013-05-13 10:36:00,58.3,51.8,29.98,North,0,0.0,-999.0,79,0.00,,,0.00,open2300 v1.10,2013-05-13 17:36:00,
2013-05-13 10:51:00,58.8,52.3,29.98,North,0,0.0,-999.0,79,0.00,,,0.00,open2300 v1.10,2013-05-13 17:51:00,
2013-05-13 11:06:00,58.8,52.3,29.98,North,0,0.0,-999.0,79,0.00,,,0.00,open2300 v1.10,2013-05-13 18:06:00,
2013-05-13 11:21:00,58.8,52.0,29.98,North,0,0.0,-999.0,78,0.00,,,0.00,open2300 v1.10,2013-05-13 18:21:00,
2013-05-13 11:36:00,58.8,52.0,29.98,North,0,0.0,-999.0,78,0.00,,,0.00,open2300 v1.10,2013-05-13 18:36:00,
2013-05-13 11:51:00,58.8,52.0,29.98,North,0,0.0,-999.0,78,0.00,,,0.00,open2300 v1.10,2013-05-13 18:51:00,
2013-05-13 12:06:00,58.8,52.0,29.98,North,0,0.0,-999.0,78,0.00,,,0.00,open2300 v1.10,2013-05-13 19:06:00,
2013-05-13 12:21:00,59.2,52.3,29.97,North,0,0.0,-999.0,78,0.00,,,0.00,open2300 v1.10,2013-05-13 19:21:00,
2013-05-13 12:36:00,59.4,52.5,29.97,North,0,0.0,-999.0,78,0.00,,,0.00,open2300 v1.10,2013-05-13 19:36:00,
2013-05-13 12:51:00,59.7,52.9,29.96,North,0,0.0,-999.0,78,0.00,,,0.00,open2300 v1.10,2013-05-13 19:51:00,
2013-05-13 13:06:00,59.9,53.1,29.96,North,0,0.0,-999.0,78,0.00,,,0.00,open2300 v1.10,2013-05-13 20:06:00,
2013-05-13 13:21:00,60.1,52.9,29.96,North,0,0.0,-999.0,77,0.00,,,0.00,open2300 v1.10,2013-05-13 20:21:00,
2013-05-13 13:36:00,60.1,52.9,29.95,North,0,0.0,-999.0,77,0.00,,,0.00,open2300 v1.10,2013-05-13 20:36:00,
2013-05-13 13:51:00,60.1,53.2,29.95,North,0,0.0,-999.0,78,0.00,,,0.00,open2300 v1.10,2013-05-13 20:51:00,
2013-05-13 14:06:00,60.1,52.9,29.94,North,0,0.0,-999.0,77,0.00,,,0.00,open2300 v1.10,2013-05-13 21:06:00,
2013-05-13 14:21:00,60.4,53.2,29.94,North,0,0.0,-999.0,77,0.00,,,0.00,open2300 v1.10,2013-05-13 21:21:00,
2013-05-13 14:36:00,60.6,53.1,29.93,North,0,0.0,-999.0,76,0.00,,,0.00,open2300 v1.10,2013-05-13 21:36:00,
2013-05-13 14:51:00,60.6,53.1,29.93,North,0,0.0,-999.0,76,0.00,,,0.00,open2300 v1.10,2013-05-13 21:51:00,
2013-05-13 15:06:00,61.2,53.6,29.92,North,0,0.0,-999.0,76,0.00,,,0.00,open2300 v1.10,2013-05-13 22:06:00,
2013-05-13 15:21:00,61.3,53.4,29.91,North,0,0.0,-999.0,75,0.00,,,0.00,open2300 v1.10,2013-05-13 22:21:00,
2013-05-13 15:36:00,61.9,53.8,29.91,North,0,0.0,-999.0,75,0.00,,,0.00,open2300 v1.10,2013-05-13 22:36:00,
2013-05-13 15:51:00,62.2,53.8,29.91,North,0,0.0,-999.0,74,0.00,,,0.00,open2300 v1.10,2013-05-13 22:51:00,
2013-05-13 16:06:00,62.8,54.0,29.90,North,0,0.0,-999.0,73,0.00,,,0.00,open2300 v1.10,2013-05-13 23:06:00,
2013-05-13 16:21:00,63.1,54.0,29.89,North,0,0.0,-999.0,72,0.00,,,0.00,open2300 v1.10,2013-05-13 23:21:00,
2013-05-13 16:36:00,63.7,54.5,29.89,North,0,0.0,-999.0,72,0.00,,,0.00,open2300 v1.10,2013-05-13 23:36:00,
2013-05-13 16:51:00,64.0,54.5,29.88,North,0,0.0,-999.0,71,0.00,,,0.00,open2300 v1.10,2013-05-13 23:51:00,
2013-05-13 17:06:00,64.8,54.8,29.88,North,0,0.0,-999.0,70,0.00,,,0.00,open2300 v1.10,2013-05-14 00:06:00,
2013-05-13 17:21:00,65.1,54.7,29.88,North,0,0.0,-999.0,69,0.00,,,0.00,open2300 v1.10,2013-05-14 00:21:00,
2013-05-13 17:36:00,65.5,54.2,29.87,North,0,0.0,-999.0,67,0.00,,,0.00,open2300 v1.10,2013-05-14 00:36:00,
2013-05-13 17:51:00,66.0,54.7,29.87,North,0,0.0,-999.0,67,0.00,,,0.00,open2300 v1.10,2013-05-14 00:51:00,
2013-05-13 18:06:00,66.9,54.7,29.86,North,0,0.0,-999.0,65,0.00,,,0.00,open2300 v1.10,2013-05-14 01:06:00,
2013-05-13 18:21:00,67.1,54.0,29.86,North,0,0.0,-999.0,63,0.00,,,0.00,open2300 v1.10,2013-05-14 01:21:00,
2013-05-13 18:36:00,67.3,53.8,29.86,North,0,0.0,-999.0,62,0.00,,,0.00,open2300 v1.10,2013-05-14 01:36:00,
2013-05-13 18:51:00,67.1,53.2,29.85,North,0,0.0,-999.0,61,0.00,,,0.00,open2300 v1.10,2013-05-14 01:51:00,
2013-05-13 19:06:00,66.7,52.5,29.84,North,0,0.0,-999.0,60,0.00,,,0.00,open2300 v1.10,2013-05-14 02:06:00,
2013-05-13 19:21:00,66.4,52.1,29.84,North,0,0.0,-999.0,60,0.00,,,0.00,open2300 v1.10,2013-05-14 02:21:00,
2013-05-13 19:36:00,65.8,51.6,29.84,North,0,0.0,-999.0,60,0.00,,,0.00,open2300 v1.10,2013-05-14 02:36:00,
2013-05-13 19:51:00,64.9,50.7,29.85,North,0,0.0,-999.0,60,0.00,,,0.00,open2300 v1.10,2013-05-14 02:51:00,
2013-05-13 20:06:00,63.9,50.1,29.84,North,0,0.0,-999.0,61,0.00,,,0.00,open2300 v1.10,2013-05-14 03:06:00,
2013-05-13 20:21:00,63.0,50.1,29.84,North,0,0.0,-999.0,63,0.00,,,0.00,open2300 v1.10,2013-05-14 03:21:00,
2013-05-13 20:36:00,62.1,49.3,29.84,North,0,0.0,-999.0,63,0.00,,,0.00,open2300 v1.10,2013-05-14 03:36:00,
2013-05-13 20:51:00,61.2,49.3,29.84,North,0,0.0,-999.0,65,0.00,,,0.00,open2300 v1.10,2013-05-14 03:51:00,
2013-05-13 21:06:00,60.6,49.2,29.85,North,0,0.0,-999.0,66,0.00,,,0.00,open2300 v1.10,2013-05-14 04:06:00,
2013-05-13 21:21:00,60.1,48.7,29.85,North,0,0.0,-999.0,66,0.00,,,0.00,open2300 v1.10,2013-05-14 04:21:00,
2013-05-13 21:36:00,59.5,48.6,29.85,North,0,0.0,-999.0,67,0.00,,,0.00,open2300 v1.10,2013-05-14 04:36:00,
2013-05-13 21:51:00,59.5,49.0,29.85,North,0,0.0,-999.0,68,0.00,,,0.00,open2300 v1.10,2013-05-14 04:51:00,
2013-05-13 22:06:00,59.5,49.0,29.85,North,0,0.0,-999.0,68,0.00,,,0.00,open2300 v1.10,2013-05-14 05:06:00,
2013-05-13 22:21:00,59.5,49.0,29.85,North,0,0.0,-999.0,68,0.00,,,0.00,open2300 v1.10,2013-05-14 05:21:00,
2013-05-13 22:36:00,58.8,48.7,29.85,North,0,0.0,-999.0,69,0.00,,,0.00,open2300 v1.10,2013-05-14 05:36:00,
2013-05-13 22:51:00,58.8,48.7,29.85,North,0,0.0,-999.0,69,0.00,,,0.00,open2300 v1.10,2013-05-14 05:51:00,
2013-05-13 23:06:00,58.8,49.1,29.85,North,0,0.0,-999.0,70,0.00,,,0.00,open2300 v1.10,2013-05-14 06:06:00,
2013-05-13 23:21:00,58.1,48.7,29.85,North,0,0.0,-999.0,71,0.00,,,0.00,open2300 v1.10,2013-05-14 06:21:00,
2013-05-13 23:36:00,57.4,48.0,29.85,North,0,0.0,-999.0,71,0.00,,,0.00,open2300 v1.10,2013-05-14 06:36:00,
2013-05-13 23:51:00,57.0,48.0,29.84,North,0,0.0,-999.0,72,0.00,,,0.00,open2300 v1.10,2013-05-14 06:51:00,